sensor_id;sensor_type;location;lat;lon;timestamp;temperature;humidity
1568;DHT22;777;47.156;8.326;2024-03-08T00:04:10;-0.70;99.90
1568;DHT22;777;47.156;8.326;2024-03-08T00:34:13;-1.00;99.90
1568;DHT22;777;47.156;8.326;2024-03-08T01:04:17;-1.40;99.90
1568;DHT22;777;47.156;8.326;2024-03-08T01:34:21;-1.50;99.90
1568;DHT22;777;47.156;8.326;2024-03-08T02:04:24;-1.30;99.90
1568;DHT22;777;47.156;8.326;2024-03-08T02:34:28;-1.00;99.90
1568;DHT22;777;47.156;8.326;2024-03-08T03:04:31;-1.20;99.90
1568;DHT22;777;47.156;8.326;2024-03-08T03:34:36;-1.00;99.90
1568;DHT22;777;47.156;8.326;2024-03-08T04:04:40;-1.20;99.90
1568;DHT22;777;47.156;8.326;2024-03-08T04:34:43;-0.90;99.90
1568;DHT22;777;47.156;8.326;2024-03-08T05:04:47;-0.60;99.90
1568;DHT22;777;47.156;8.326;2024-03-08T05:34:50;-0.60;99.90
1568;DHT22;777;47.156;8.326;2024-03-08T06:04:54;-0.30;99.90
1568;DHT22;777;47.156;8.326;2024-03-08T06:34:58;-0.20;99.90
1568;DHT22;777;47.156;8.326;2024-03-08T07:05:01;0.00;99.90
1568;DHT22;777;47.156;8.326;2024-03-08T07:35:06;0.50;99.90
1568;DHT22;777;47.156;8.326;2024-03-08T08:05:09;1.00;99.90
1568;DHT22;777;47.156;8.326;2024-03-08T08:35:13;1.50;99.90
1568;DHT22;777;47.156;8.326;2024-03-08T09:05:16;1.70;99.90
1568;DHT22;777;47.156;8.326;2024-03-08T09:35:20;2.60;99.90
1568;DHT22;777;47.156;8.326;2024-03-08T10:05:23;2.60;99.90
1568;DHT22;777;47.156;8.326;2024-03-08T10:35:27;3.10;99.90
1568;DHT22;777;47.156;8.326;2024-03-08T11:05:35;4.10;99.90
1568;DHT22;777;47.156;8.326;2024-03-08T11:35:40;5.80;99.90
1568;DHT22;777;47.156;8.326;2024-03-08T12:05:57;5.90;99.90
1568;DHT22;777;47.156;8.326;2024-03-08T12:36:01;7.40;99.90
1568;DHT22;777;47.156;8.326;2024-03-08T13:06:09;13.30;99.90
1568;DHT22;777;47.156;8.326;2024-03-08T13:36:12;15.10;99.90
1568;DHT22;777;47.156;8.326;2024-03-08T14:06:18;18.80;99.90
1568;DHT22;777;47.156;8.326;2024-03-08T14:36:21;19.70;99.90
1568;DHT22;777;47.156;8.326;2024-03-08T15:06:25;12.90;99.90
1568;DHT22;777;47.156;8.326;2024-03-08T15:36:29;15.50;99.90
1568;DHT22;777;47.156;8.326;2024-03-08T16:06:35;11.80;99.90
1568;DHT22;777;47.156;8.326;2024-03-08T16:36:42;9.90;99.90
1568;DHT22;777;47.156;8.326;2024-03-08T17:06:45;7.90;99.90
1568;DHT22;777;47.156;8.326;2024-03-08T17:36:49;6.80;99.90
1568;DHT22;777;47.156;8.326;2024-03-08T18:06:54;5.70;99.90
1568;DHT22;777;47.156;8.326;2024-03-08T18:36:57;4.90;99.90
1568;DHT22;777;47.156;8.326;2024-03-08T19:07:02;4.40;99.90
1568;DHT22;777;47.156;8.326;2024-03-08T19:37:06;3.90;99.90
1568;DHT22;777;47.156;8.326;2024-03-08T20:07:10;3.60;99.90
1568;DHT22;777;47.156;8.326;2024-03-08T20:37:15;3.60;99.90
1568;DHT22;777;47.156;8.326;2024-03-08T21:07:20;3.70;99.90
1568;DHT22;777;47.156;8.326;2024-03-08T21:37:24;3.40;99.90
1568;DHT22;777;47.156;8.326;2024-03-08T22:07:27;3.70;99.90
1568;DHT22;777;47.156;8.326;2024-03-08T22:37:31;3.60;99.90
1568;DHT22;777;47.156;8.326;2024-03-08T23:07:34;3.60;99.90
1568;DHT22;777;47.156;8.326;2024-03-08T23:37:38;3.30;99.90
